createdAt,value
2022-09-29T00:00:48.304Z,1.65
2022-09-29T00:03:14.915Z,2.03
2022-09-29T00:05:50.947Z,1.75
2022-09-29T00:08:19.711Z,2.30
2022-09-29T00:10:46.901Z,3.33
2022-09-29T00:13:14.620Z,0.60
2022-09-29T00:15:41.508Z,2.08
2022-09-29T00:18:14.102Z,1.45
2022-09-29T00:20:41.260Z,1.13
2022-09-29T00:23:07.891Z,3.33
2022-09-29T00:25:34.905Z,1.40
2022-09-29T00:28:01.789Z,1.00
2022-09-29T00:30:28.408Z,1.35
2022-09-29T00:32:55.093Z,3.97
2022-09-29T00:35:21.785Z,1.10
2022-09-29T00:37:48.386Z,1.33
2022-09-29T00:40:14.994Z,1.20
2022-09-29T00:42:41.618Z,1.95
2022-09-29T00:45:28.873Z,2.63
2022-09-29T00:48:13.646Z,0.85
2022-09-29T00:50:48.861Z,2.72
2022-09-29T00:53:21.567Z,1.77
2022-09-29T00:55:58.133Z,1.08
2022-09-29T00:58:33.493Z,4.00
2022-09-29T01:01:00.262Z,3.70
2022-09-29T01:03:40.593Z,2.78
2022-09-29T01:06:20.457Z,3.45
2022-09-29T01:09:04.912Z,3.35
2022-09-29T01:11:32.166Z,3.03
2022-09-29T01:14:04.965Z,0.85
2022-09-29T01:16:33.753Z,5.50
2022-09-29T01:19:06.169Z,1.63
2022-09-29T01:22:03.474Z,0.65
2022-09-29T01:25:05.637Z,1.65
2022-09-29T01:28:08.693Z,1.30
2022-09-29T01:30:56.197Z,6.10
2022-09-29T01:33:52.091Z,0.82
2022-09-29T01:36:54.525Z,0.60
2022-09-29T01:39:48.170Z,5.03
2022-09-29T01:42:22.903Z,2.03
2022-09-29T01:45:12.563Z,3.03
2022-09-29T01:47:45.920Z,0.80
2022-09-29T01:50:23.622Z,1.42
2022-09-29T01:52:59.837Z,1.52
2022-09-29T01:55:31.865Z,1.85
2022-09-29T01:58:07.936Z,2.03
2022-09-29T02:00:47.309Z,1.65
2022-09-29T02:03:31.696Z,2.40
2022-09-29T02:06:04.544Z,1.33
2022-09-29T02:08:48.621Z,1.40
2022-09-29T02:11:17.767Z,1.67
2022-09-29T02:14:07.618Z,3.92
2022-09-29T02:16:43.593Z,0.60
2022-09-29T02:19:19.949Z,3.25
2022-09-29T02:21:46.985Z,0.52
2022-09-29T02:24:14.614Z,3.45
2022-09-29T02:26:42.395Z,2.58
2022-09-29T02:29:09.413Z,0.55
2022-09-29T02:31:37.844Z,0.77
2022-09-29T02:34:06.981Z,2.55
2022-09-29T02:36:54.180Z,1.02
2022-09-29T02:39:40.488Z,1.88
2022-09-29T02:42:55.646Z,1.05
2022-09-29T02:46:05.499Z,2.35
2022-09-29T02:49:00.145Z,3.42
2022-09-29T02:51:41.965Z,1.90
2022-09-29T02:54:32.393Z,2.80
2022-09-29T02:57:26.401Z,1.67
2022-09-29T03:00:09.734Z,12.80
2022-09-29T03:02:38.710Z,3.50
2022-09-29T03:05:09.797Z,3.13
2022-09-29T03:07:38.236Z,2.05
2022-09-29T03:10:06.590Z,1.42
2022-09-29T03:12:34.061Z,5.95
2022-09-29T03:15:00.989Z,1.65
2022-09-29T03:17:27.541Z,1.85
2022-09-29T03:19:54.101Z,2.75
2022-09-29T03:22:20.665Z,1.67
2022-09-29T03:24:47.214Z,0.75
2022-09-29T03:27:13.863Z,3.20
2022-09-29T03:29:40.454Z,1.58
2022-09-29T03:32:07.470Z,0.88
2022-09-29T03:34:34.809Z,1.83
2022-09-29T03:37:01.882Z,3.65
2022-09-29T03:39:28.781Z,5.45
2022-09-29T03:41:55.757Z,2.00
2022-09-29T03:44:22.357Z,2.30
2022-09-29T03:46:49.075Z,1.23
2022-09-29T03:49:15.930Z,2.92
2022-09-29T03:51:43.011Z,1.92
2022-09-29T03:54:10.026Z,1.35
2022-09-29T03:56:37.754Z,2.00
2022-09-29T03:59:08.337Z,4.47
2022-09-29T04:01:37.997Z,3.00
2022-09-29T04:04:06.685Z,1.63
2022-09-29T04:06:36.138Z,0.70
2022-09-29T04:09:03.481Z,3.10
2022-09-29T04:11:30.398Z,2.13
2022-09-29T04:13:56.963Z,0.70
2022-09-29T04:16:23.588Z,1.90
2022-09-29T04:18:50.206Z,1.10
2022-09-29T04:21:17.073Z,2.13
2022-09-29T04:23:43.761Z,5.35
2022-09-29T04:26:10.706Z,1.27
2022-09-29T04:28:38.613Z,3.42
2022-09-29T04:31:05.768Z,4.97
2022-09-29T04:33:32.570Z,3.78
2022-09-29T04:36:00.035Z,3.60
2022-09-29T04:38:27.098Z,2.17
2022-09-29T04:40:53.952Z,5.07
2022-09-29T04:43:20.685Z,3.83
2022-09-29T04:45:47.324Z,1.80
2022-09-29T04:48:13.961Z,0.85
2022-09-29T04:50:40.689Z,2.92
2022-09-29T04:53:07.973Z,2.75
2022-09-29T04:55:34.558Z,3.83
2022-09-29T04:58:01.131Z,1.65
2022-09-29T05:00:27.812Z,1.00
2022-09-29T05:02:54.363Z,3.90
2022-09-29T05:05:20.969Z,1.10
2022-09-29T05:07:48.078Z,2.35
2022-09-29T05:10:14.727Z,7.43
2022-09-29T05:12:41.297Z,1.15
2022-09-29T05:15:08.921Z,2.17
2022-09-29T05:17:35.512Z,4.53
2022-09-29T05:20:02.184Z,2.85
2022-09-29T05:22:28.796Z,3.05
2022-09-29T05:24:55.384Z,4.13
2022-09-29T05:27:22.277Z,2.40
2022-09-29T05:29:49.336Z,1.48
2022-09-29T05:32:16.205Z,1.63
2022-09-29T05:34:43.556Z,1.20
2022-09-29T05:37:10.408Z,1.73
2022-09-29T05:39:37.571Z,1.33
2022-09-29T05:42:11.316Z,2.22
2022-09-29T05:44:37.998Z,4.85
2022-09-29T05:47:04.660Z,18.83
2022-09-29T05:49:32.740Z,11.77
2022-09-29T05:52:00.245Z,3.22
2022-09-29T05:54:29.945Z,4.00
2022-09-29T05:56:56.882Z,1.52
2022-09-29T05:59:23.447Z,4.45
2022-09-29T06:01:50.096Z,5.40
2022-09-29T06:04:17.410Z,2.05
2022-09-29T06:06:44.065Z,10.75
2022-09-29T06:09:10.829Z,1.65
2022-09-29T06:11:37.414Z,1.70
2022-09-29T06:14:09.753Z,5.63
2022-09-29T06:16:36.549Z,5.25
2022-09-29T06:19:04.763Z,3.03
2022-09-29T06:21:35.187Z,5.07
2022-09-29T06:24:02.242Z,11.77
2022-09-29T06:26:29.272Z,3.60
2022-09-29T06:28:57.057Z,3.35
2022-09-29T06:31:27.693Z,4.20
2022-09-29T06:33:58.817Z,4.82
2022-09-29T06:36:56.054Z,4.93
2022-09-29T06:39:22.976Z,5.05
2022-09-29T06:41:53.683Z,3.95
2022-09-29T06:44:24.713Z,7.93
2022-09-29T06:46:53.016Z,7.65
2022-09-29T06:49:20.959Z,5.88
2022-09-29T06:51:48.393Z,2.90
2022-09-29T06:54:20.316Z,3.75
2022-09-29T06:56:48.620Z,7.47
2022-09-29T06:59:15.600Z,5.90
2022-09-29T07:01:42.812Z,9.32
2022-09-29T07:04:09.579Z,16.80
2022-09-29T07:06:36.322Z,8.07
2022-09-29T07:09:03.273Z,6.18
2022-09-29T07:11:30.012Z,4.18
2022-09-29T07:13:56.756Z,6.07
2022-09-29T07:16:24.432Z,7.63
2022-09-29T07:18:52.405Z,4.43
2022-09-29T07:21:20.659Z,3.67
2022-09-29T07:23:47.781Z,4.70
2022-09-29T07:26:16.639Z,4.03
2022-09-29T07:28:46.111Z,4.15
2022-09-29T07:31:17.014Z,7.45
2022-09-29T07:33:50.644Z,4.60
2022-09-29T07:36:20.203Z,5.68
2022-09-29T07:38:49.829Z,6.03
2022-09-29T07:41:19.413Z,7.10
2022-09-29T07:43:46.870Z,4.63
2022-09-29T07:46:13.796Z,6.53
2022-09-29T07:48:41.001Z,4.82
2022-09-29T07:51:17.168Z,2.90
2022-09-29T07:53:45.000Z,6.05
2022-09-29T07:56:20.874Z,3.10
2022-09-29T07:58:50.111Z,5.93
2022-09-29T08:01:18.992Z,3.28
2022-09-29T08:03:52.313Z,3.58
2022-09-29T08:06:19.761Z,3.60
2022-09-29T08:09:00.034Z,3.33
2022-09-29T08:11:32.409Z,3.78
2022-09-29T08:14:00.620Z,4.10
2022-09-29T08:16:27.542Z,4.82
2022-09-29T08:18:54.756Z,4.82
2022-09-29T08:21:21.412Z,6.65
2022-09-29T08:23:48.099Z,5.00
2022-09-29T08:26:27.611Z,5.85
2022-09-29T08:29:07.698Z,10.45
2022-09-29T08:31:35.692Z,4.15
2022-09-29T08:34:02.396Z,4.43
2022-09-29T08:36:29.352Z,5.63
2022-09-29T08:38:57.736Z,4.50
2022-09-29T08:41:52.101Z,5.15
2022-09-29T08:44:41.612Z,5.13
2022-09-29T08:47:47.424Z,4.38
2022-09-29T08:50:28.012Z,5.88
2022-09-29T08:52:59.555Z,5.50
2022-09-29T08:55:58.759Z,5.68
2022-09-29T08:58:25.577Z,4.50
2022-09-29T09:01:28.083Z,4.50
2022-09-29T09:04:07.051Z,8.15
2022-09-29T09:07:18.901Z,7.50
2022-09-29T09:10:13.323Z,6.50
2022-09-29T09:13:15.037Z,6.03
2022-09-29T09:16:01.917Z,9.30
2022-09-29T09:19:00.671Z,7.78
2022-09-29T09:21:44.469Z,5.90
2022-09-29T09:24:36.851Z,8.93
2022-09-29T09:27:04.313Z,10.55
2022-09-29T09:29:38.184Z,7.72
2022-09-29T09:32:32.195Z,10.82
2022-09-29T09:35:24.095Z,13.82
2022-09-29T09:37:53.890Z,11.32
2022-09-29T09:40:27.603Z,12.02
2022-09-29T09:43:20.571Z,13.85
2022-09-29T09:46:20.471Z,13.70
2022-09-29T09:49:10.728Z,12.77
2022-09-29T09:51:50.550Z,16.70
2022-09-29T09:54:40.150Z,15.85
2022-09-29T09:57:34.148Z,16.23
2022-09-29T10:00:13.358Z,17.25
2022-09-29T10:02:46.541Z,19.17
2022-09-29T10:05:20.480Z,16.30
2022-09-29T10:07:49.071Z,16.92
2022-09-29T10:10:25.384Z,16.60
2022-09-29T10:13:00.030Z,15.65
2022-09-29T10:15:47.601Z,16.50
2022-09-29T10:18:22.260Z,15.80
2022-09-29T10:20:49.448Z,19.63
2022-09-29T10:23:25.956Z,21.65
2022-09-29T10:26:07.757Z,15.82
2022-09-29T10:28:43.780Z,17.83
2022-09-29T10:31:34.462Z,15.93
2022-09-29T10:34:15.727Z,16.73
2022-09-29T10:37:35.006Z,14.55
2022-09-29T10:40:10.649Z,15.50
2022-09-29T10:42:43.295Z,15.65
2022-09-29T10:45:26.189Z,17.48
2022-09-29T10:47:58.949Z,18.88
2022-09-29T10:50:33.359Z,21.55
2022-09-29T10:53:17.254Z,18.08
2022-09-29T10:55:54.242Z,17.75
2022-09-29T10:58:53.161Z,21.63
2022-09-29T11:01:27.751Z,18.88
2022-09-29T11:04:05.713Z,17.85
2022-09-29T11:06:39.361Z,20.13
2022-09-29T11:09:29.292Z,19.90
2022-09-29T11:12:02.309Z,16.45
2022-09-29T11:14:37.015Z,19.40
2022-09-29T11:17:23.502Z,20.10
2022-09-29T11:19:52.793Z,19.20
2022-09-29T11:22:53.332Z,17.73
2022-09-29T11:25:50.202Z,19.38
2022-09-29T11:28:47.894Z,18.55
2022-09-29T11:31:56.159Z,21.95
2022-09-29T11:35:05.880Z,25.98
2022-09-29T11:37:58.903Z,20.92
2022-09-29T11:40:57.499Z,24.88
2022-09-29T11:43:47.430Z,18.13
2022-09-29T11:46:39.515Z,21.05
2022-09-29T11:49:40.193Z,21.85
2022-09-29T11:52:42.128Z,19.45
2022-09-29T11:55:33.171Z,17.15
2022-09-29T11:58:31.784Z,18.58
2022-09-29T12:01:06.754Z,16.70
2022-09-29T12:04:13.197Z,16.48
2022-09-29T12:07:13.421Z,18.92
2022-09-29T12:10:03.480Z,20.65
2022-09-29T12:12:55.107Z,19.15
2022-09-29T12:16:07.836Z,18.38
2022-09-29T12:19:02.097Z,13.90
2022-09-29T12:21:43.058Z,14.13
2022-09-29T12:24:41.513Z,16.98
2022-09-29T12:27:20.075Z,16.23
2022-09-29T12:30:05.046Z,16.35
2022-09-29T12:32:51.753Z,15.05
2022-09-29T12:35:48.129Z,17.67
2022-09-29T12:38:36.977Z,13.45
2022-09-29T12:41:29.773Z,18.60
2022-09-29T12:44:15.182Z,15.48
2022-09-29T12:46:53.135Z,15.88
2022-09-29T12:49:38.767Z,15.35
2022-09-29T12:52:22.095Z,12.52
2022-09-29T12:54:58.415Z,13.13
2022-09-29T12:57:32.577Z,13.95
2022-09-29T13:00:09.255Z,11.35
2022-09-29T13:03:31.495Z,10.95
2022-09-29T13:06:32.974Z,12.57
2022-09-29T13:09:39.339Z,9.38
2022-09-29T13:12:52.605Z,9.25
2022-09-29T13:15:45.274Z,7.75
2022-09-29T13:18:30.638Z,12.50
2022-09-29T13:21:38.589Z,10.02
2022-09-29T13:24:11.184Z,7.70
2022-09-29T13:27:07.725Z,10.27
2022-09-29T13:29:50.458Z,9.60
2022-09-29T13:32:17.709Z,10.13
2022-09-29T13:34:55.217Z,7.38
2022-09-29T13:37:25.277Z,7.00
2022-09-29T13:40:03.585Z,3.72
2022-09-29T13:42:45.687Z,6.70
2022-09-29T13:45:21.424Z,8.10
2022-09-29T13:47:52.128Z,4.53
2022-09-29T13:50:45.213Z,4.57
2022-09-29T13:53:25.483Z,9.05
2022-09-29T13:56:04.858Z,7.03
2022-09-29T13:58:56.248Z,7.45
2022-09-29T14:01:38.002Z,7.20
2022-09-29T14:04:37.568Z,7.32
2022-09-29T14:07:06.677Z,8.82
2022-09-29T14:09:42.096Z,12.25
2022-09-29T14:12:22.989Z,5.93
2022-09-29T14:14:57.869Z,5.55
2022-09-29T14:17:34.204Z,6.47
2022-09-29T14:20:16.739Z,6.53
2022-09-29T14:22:46.388Z,7.68
2022-09-29T14:25:15.001Z,8.68
2022-09-29T14:28:21.007Z,7.97
2022-09-29T14:30:53.072Z,6.50
2022-09-29T14:33:25.632Z,6.35
2022-09-29T14:36:01.652Z,5.97
2022-09-29T14:38:32.710Z,5.82
2022-09-29T14:41:08.117Z,4.03
2022-09-29T14:43:54.744Z,3.45
2022-09-29T14:46:57.909Z,7.78
2022-09-29T14:50:13.284Z,3.42
2022-09-29T14:53:06.263Z,4.00
2022-09-29T14:56:04.885Z,3.15
2022-09-29T14:59:02.805Z,4.95
2022-09-29T15:01:31.672Z,4.82
2022-09-29T15:04:14.505Z,3.25
2022-09-29T15:06:50.371Z,4.10
2022-09-29T15:09:21.479Z,4.32
2022-09-29T15:11:53.478Z,4.43
2022-09-29T15:14:30.978Z,4.15
2022-09-29T15:17:20.038Z,3.35
2022-09-29T15:20:27.629Z,5.00
2022-09-29T15:23:30.094Z,5.55
2022-09-29T15:28:39.088Z,5.07
2022-09-29T15:31:11.667Z,8.23
2022-09-29T15:33:43.991Z,6.90
2022-09-29T15:36:26.387Z,4.90
2022-09-29T15:39:13.194Z,4.35
2022-09-29T15:41:40.236Z,9.80
2022-09-29T15:44:18.343Z,6.80
2022-09-29T15:46:51.979Z,6.90
2022-09-29T15:49:22.445Z,4.18
2022-09-29T15:52:12.178Z,3.75
2022-09-29T15:54:44.784Z,3.58
2022-09-29T15:57:53.247Z,6.45
2022-09-29T16:00:23.178Z,4.47
2022-09-29T16:03:02.164Z,4.78
2022-09-29T16:05:32.560Z,4.82
2022-09-29T16:08:15.605Z,6.25
2022-09-29T16:11:04.925Z,2.75
2022-09-29T16:13:36.840Z,5.47
2022-09-29T16:16:07.909Z,2.85
2022-09-29T16:18:49.209Z,6.85
2022-09-29T16:21:22.684Z,3.88
2022-09-29T16:24:03.373Z,5.88
2022-09-29T16:26:41.251Z,3.92
2022-09-29T16:29:10.621Z,6.10
2022-09-29T16:31:46.079Z,5.80
2022-09-29T16:34:22.107Z,2.38
2022-09-29T16:37:02.032Z,8.07
2022-09-29T16:39:40.789Z,6.20
2022-09-29T16:42:26.063Z,6.38
2022-09-29T16:44:55.629Z,7.93
2022-09-29T16:47:30.237Z,3.78
2022-09-29T16:50:03.180Z,9.68
2022-09-29T16:52:42.903Z,3.13
2022-09-29T16:55:16.608Z,4.60
2022-09-29T16:58:08.172Z,5.10
2022-09-29T17:00:36.415Z,5.07
2022-09-29T17:03:05.473Z,5.72
2022-09-29T17:05:43.704Z,6.78
2022-09-29T17:08:25.286Z,5.38
2022-09-29T17:10:54.548Z,7.45
2022-09-29T17:13:22.244Z,11.77
2022-09-29T17:15:51.945Z,14.80
2022-09-29T17:18:20.377Z,12.55
2022-09-29T17:20:47.075Z,11.40
2022-09-29T17:23:13.832Z,11.88
2022-09-29T17:25:44.716Z,12.68
2022-09-29T17:28:24.401Z,10.30
2022-09-29T17:30:55.270Z,5.72
2022-09-29T17:33:22.076Z,13.40
2022-09-29T17:35:55.081Z,9.65
2022-09-29T17:38:23.655Z,9.95
2022-09-29T17:41:04.026Z,12.63
2022-09-29T17:43:31.713Z,6.85
2022-09-29T17:46:00.429Z,4.25
2022-09-29T17:48:28.997Z,12.73
2022-09-29T17:50:58.947Z,6.25
2022-09-29T17:53:26.338Z,3.78
2022-09-29T17:55:56.466Z,5.20
2022-09-29T17:58:23.737Z,4.47
2022-09-29T18:00:53.455Z,9.00
2022-09-29T18:03:21.492Z,4.95
2022-09-29T18:05:59.657Z,5.88
2022-09-29T18:08:29.128Z,7.97
2022-09-29T18:11:00.877Z,8.38
2022-09-29T18:13:31.573Z,5.60
2022-09-29T18:16:00.596Z,3.83
2022-09-29T18:18:27.655Z,7.18
2022-09-29T18:20:54.484Z,48.92
2022-09-29T18:23:23.838Z,69.68
2022-09-29T18:25:51.951Z,50.17
2022-09-29T18:28:19.222Z,17.00
2022-09-29T18:30:50.280Z,32.95
2022-09-29T18:33:19.725Z,18.63
2022-09-29T18:35:54.654Z,14.02
2022-09-29T18:38:21.894Z,9.75
2022-09-29T18:40:51.529Z,10.07
2022-09-29T18:43:18.203Z,10.68
2022-09-29T18:45:45.073Z,9.23
2022-09-29T18:48:14.555Z,8.13
2022-09-29T18:50:48.115Z,12.43
2022-09-29T18:53:20.566Z,10.00
2022-09-29T18:55:49.409Z,7.25
2022-09-29T18:58:19.815Z,7.60
2022-09-29T19:00:53.871Z,9.20
2022-09-29T19:03:26.305Z,15.50
2022-09-29T19:05:54.185Z,9.10
2022-09-29T19:08:21.469Z,9.73
2022-09-29T19:10:58.274Z,14.68
2022-09-29T19:13:25.944Z,47.00
2022-09-29T19:15:57.550Z,28.25
2022-09-29T19:18:25.570Z,20.48
2022-09-29T19:20:55.767Z,13.18
2022-09-29T19:23:25.106Z,5.82
2022-09-29T19:25:53.858Z,6.28
2022-09-29T19:28:23.613Z,9.02
2022-09-29T19:30:50.632Z,7.82
2022-09-29T19:33:21.474Z,9.57
2022-09-29T19:35:54.485Z,6.53
2022-09-29T19:38:22.425Z,6.55
2022-09-29T19:40:51.374Z,10.55
2022-09-29T19:43:18.217Z,12.13
2022-09-29T19:45:44.904Z,9.43
2022-09-29T19:48:17.418Z,5.72
2022-09-29T19:51:03.374Z,8.75
2022-09-29T19:53:30.668Z,11.02
2022-09-29T19:55:57.430Z,11.65
2022-09-29T19:58:24.250Z,6.38
2022-09-29T20:00:57.319Z,7.53
2022-09-29T20:03:24.144Z,17.30
2022-09-29T20:05:50.759Z,48.60
2022-09-29T20:08:17.331Z,13.95
2022-09-29T20:10:43.903Z,11.80
2022-09-29T20:13:14.518Z,17.15
2022-09-29T20:15:43.905Z,12.85
2022-09-29T20:18:10.574Z,21.90
2022-09-29T20:20:38.597Z,20.30
2022-09-29T20:23:05.175Z,12.88
2022-09-29T20:25:31.857Z,7.43
2022-09-29T20:27:58.870Z,9.05
2022-09-29T20:30:26.289Z,7.28
2022-09-29T20:32:52.938Z,13.15
2022-09-29T20:35:19.536Z,8.52
2022-09-29T20:37:46.752Z,9.27
2022-09-29T20:40:13.331Z,15.05
2022-09-29T20:42:41.130Z,11.13
2022-09-29T20:45:08.463Z,7.53
2022-09-29T20:47:36.202Z,12.07
2022-09-29T20:50:04.815Z,20.40
2022-09-29T20:52:32.560Z,11.40
2022-09-29T20:55:02.307Z,10.40
2022-09-29T20:57:28.949Z,7.70
2022-09-29T20:59:55.584Z,10.00
2022-09-29T21:02:22.271Z,9.35
2022-09-29T21:04:48.990Z,7.70
2022-09-29T21:07:34.442Z,8.52
2022-09-29T21:10:01.362Z,10.25
2022-09-29T21:12:27.910Z,14.85
2022-09-29T21:14:54.503Z,16.00
2022-09-29T21:17:21.059Z,9.77
2022-09-29T21:19:47.633Z,11.60
2022-09-29T21:22:14.300Z,15.15
2022-09-29T21:24:41.432Z,14.52
2022-09-29T21:27:09.173Z,11.48
2022-09-29T21:29:35.892Z,6.20
2022-09-29T21:32:03.155Z,7.45
2022-09-29T21:34:29.877Z,8.07
2022-09-29T21:36:56.661Z,6.47
2022-09-29T21:39:23.272Z,5.85
2022-09-29T21:41:49.915Z,6.15
2022-09-29T21:44:20.596Z,5.93
2022-09-29T21:46:47.732Z,7.35
2022-09-29T21:49:16.512Z,8.70
2022-09-29T21:51:47.795Z,9.43
2022-09-29T21:54:25.469Z,10.07
2022-09-29T21:56:52.968Z,6.95
2022-09-29T21:59:22.288Z,6.88
2022-09-29T22:01:50.471Z,7.95
2022-09-29T22:04:18.183Z,8.50
2022-09-29T22:06:45.450Z,5.90
2022-09-29T22:09:17.427Z,4.97
2022-09-29T22:11:45.215Z,6.45
2022-09-29T22:14:14.137Z,5.65
2022-09-29T22:16:40.869Z,9.35
2022-09-29T22:19:24.447Z,4.75
2022-09-29T22:21:53.477Z,5.63
2022-09-29T22:24:20.211Z,5.45
2022-09-29T22:26:46.829Z,5.32
2022-09-29T22:29:13.545Z,7.35
2022-09-29T22:31:40.766Z,3.55
2022-09-29T22:34:08.183Z,5.97
2022-09-29T22:36:35.579Z,4.32
2022-09-29T22:39:04.804Z,3.10
2022-09-29T22:41:33.022Z,10.38
2022-09-29T22:44:00.696Z,4.13
2022-09-29T22:46:29.741Z,4.13
2022-09-29T22:48:58.423Z,7.22
2022-09-29T22:51:25.112Z,4.88
2022-09-29T22:53:51.855Z,5.25
2022-09-29T22:56:22.152Z,5.63
2022-09-29T22:58:49.359Z,7.07
2022-09-29T23:01:18.072Z,3.38
2022-09-29T23:03:46.086Z,5.75
2022-09-29T23:06:13.607Z,2.60
2022-09-29T23:08:41.028Z,2.53
2022-09-29T23:11:08.635Z,3.80
2022-09-29T23:13:37.031Z,4.85
2022-09-29T23:16:11.692Z,3.15
2022-09-29T23:18:43.900Z,9.98
2022-09-29T23:21:18.836Z,3.80
2022-09-29T23:23:54.343Z,4.70
2022-09-29T23:26:21.027Z,7.28
2022-09-29T23:28:48.980Z,4.75
2022-09-29T23:31:15.817Z,4.13
2022-09-29T23:33:42.521Z,4.85
2022-09-29T23:36:15.656Z,7.47
2022-09-29T23:39:03.057Z,7.13
2022-09-29T23:41:31.101Z,8.30
2022-09-29T23:44:05.236Z,5.30
2022-09-29T23:46:35.441Z,9.38
2022-09-29T23:49:11.552Z,3.90
2022-09-29T23:51:42.311Z,3.92
2022-09-29T23:54:12.017Z,3.33
2022-09-29T23:56:39.240Z,3.42
2022-09-29T23:59:06.683Z,5.28
